Time;durP1;ratioP1;P1;durP2;ratioP2;P2;SDS_P1;SDS_P2;PMS_P1;PMS_P2;Temp;Humidity;BMP_temperature;BMP_pressure;BME280_temperature;BME280_humidity;BME280_pressure;Samples;Min_cycle;Max_cycle;Signal;HPM_P1;HPM_P2
2023/08/02 00:00:50;;;;;;;7.32;4.95;;;;;;;22.70;66.06;94554.63;4954764;28;20232;-69
2023/08/02 00:03:15;;;;;;;6.78;4.68;;;;;;;22.71;66.12;94550.88;4942457;28;20240;-69
2023/08/02 00:05:41;;;;;;;7.55;4.80;;;;;;;22.72;66.06;94549.81;4938791;28;20725;-69
2023/08/02 00:08:06;;;;;;;6.93;4.65;;;;;;;22.68;66.45;94550.66;4953994;28;20244;-70
2023/08/02 00:10:36;;;;;;;7.57;4.47;;;;;;;22.75;65.71;94549.25;4932365;28;20235;-69
2023/08/02 00:13:02;;;;;;;8.60;5.00;;;;;;;22.64;66.47;94552.31;4942581;28;20227;-69
2023/08/02 00:15:27;;;;;;;6.78;4.60;;;;;;;22.46;67.17;94551.13;4949029;28;20679;-69
2023/08/02 00:17:53;;;;;;;8.02;4.60;;;;;;;22.30;67.93;94563.00;4928251;28;20941;-67
2023/08/02 00:20:18;;;;;;;8.45;5.07;;;;;;;22.50;67.52;94556.66;4950270;28;20233;-68
2023/08/02 00:22:44;;;;;;;8.07;4.70;;;;;;;22.47;67.74;94563.38;4927816;28;20609;-68
2023/08/02 00:25:09;;;;;;;6.85;4.80;;;;;;;22.51;67.44;94553.72;4926977;28;20240;-68
2023/08/02 00:27:35;;;;;;;7.80;4.88;;;;;;;22.55;67.27;94560.09;4938911;28;20233;-69
2023/08/02 00:30:01;;;;;;;10.00;4.75;;;;;;;22.60;67.21;94562.72;4950761;28;20256;-68
2023/08/02 00:32:26;;;;;;;8.75;4.95;;;;;;;22.54;67.28;94563.84;4924911;28;20233;-69
2023/08/02 00:34:54;;;;;;;6.18;4.72;;;;;;;22.62;66.96;94560.56;4947072;28;20271;-69
2023/08/02 00:37:21;;;;;;;7.95;5.05;;;;;;;22.53;67.59;94562.25;4953526;28;20239;-71
2023/08/02 00:39:51;;;;;;;10.80;4.88;;;;;;;22.45;67.73;94562.06;4944590;28;20300;-69
2023/08/02 00:42:18;;;;;;;10.35;4.90;;;;;;;22.49;67.99;94561.22;4931676;28;20232;-70
2023/08/02 00:44:43;;;;;;;6.85;5.05;;;;;;;22.46;67.94;94559.13;4948143;28;20236;-68
2023/08/02 00:47:09;;;;;;;7.13;5.03;;;;;;;22.37;68.49;94558.13;4942188;28;20235;-68
2023/08/02 00:49:35;;;;;;;8.25;5.10;;;;;;;22.42;68.33;94552.75;4947767;28;20233;-70
2023/08/02 00:52:01;;;;;;;10.25;5.20;;;;;;;22.49;68.08;94560.44;4932130;28;20294;-69
2023/08/02 00:54:27;;;;;;;7.88;5.00;;;;;;;22.56;68.11;94559.03;4948979;28;20236;-69
2023/08/02 00:56:54;;;;;;;8.05;5.40;;;;;;;22.48;68.56;94556.16;4946030;28;20233;-69
2023/08/02 00:59:19;;;;;;;7.13;5.28;;;;;;;22.45;68.35;94560.19;4935334;28;20808;-69
2023/08/02 01:01:47;;;;;;;8.40;5.38;;;;;;;22.43;68.31;94562.34;4934168;28;20220;-69
2023/08/02 01:04:12;;;;;;;10.30;5.32;;;;;;;22.31;69.12;94553.13;4927945;28;20259;-68
2023/08/02 01:07:01;;;;;;;8.93;5.68;;;;;;;22.33;69.11;94554.44;4942271;28;20337;-69
2023/08/02 01:09:34;;;;;;;10.68;5.40;;;;;;;22.12;69.80;94559.16;4943280;28;20247;-68
2023/08/02 01:12:04;;;;;;;7.05;5.22;;;;;;;22.16;70.00;94558.59;4953368;28;20228;-68
2023/08/02 01:14:31;;;;;;;9.73;5.50;;;;;;;22.16;70.19;94558.59;4948518;28;20671;-68
2023/08/02 01:16:56;;;;;;;7.78;5.47;;;;;;;22.14;70.43;94549.00;4965495;28;20241;-69
2023/08/02 01:19:22;;;;;;;8.60;5.32;;;;;;;22.13;70.44;94546.63;4948280;28;20258;-68
2023/08/02 01:21:48;;;;;;;9.13;5.43;;;;;;;22.20;70.23;94547.09;4944955;28;20236;-68
2023/08/02 01:24:13;;;;;;;7.55;5.45;;;;;;;22.30;70.20;94541.69;4941310;28;20304;-69
2023/08/02 01:26:43;;;;;;;8.25;5.57;;;;;;;22.09;70.63;94546.38;4937415;28;26890;-69
2023/08/02 01:29:11;;;;;;;9.55;5.70;;;;;;;22.14;70.29;94549.00;4910795;28;20231;-68
2023/08/02 01:31:37;;;;;;;7.53;5.40;;;;;;;22.25;70.07;94551.59;4926076;29;21143;-69
2023/08/02 01:34:04;;;;;;;10.38;5.90;;;;;;;22.06;70.88;94543.50;4922752;29;20248;-69
2023/08/02 01:36:29;;;;;;;9.75;6.07;;;;;;;22.02;71.23;94540.56;4919606;29;20307;-67
2023/08/02 01:38:55;;;;;;;9.35;5.57;;;;;;;22.04;71.16;94542.97;4918176;29;20237;-68
2023/08/02 01:41:21;;;;;;;9.52;5.68;;;;;;;22.08;71.22;94530.69;4974722;28;20283;-69
2023/08/02 01:43:46;;;;;;;9.02;5.60;;;;;;;22.11;70.87;94528.22;4975701;28;20237;-69
2023/08/02 01:46:12;;;;;;;7.80;5.63;;;;;;;22.23;70.49;94527.88;4967479;28;20290;-68
2023/08/02 01:48:37;;;;;;;9.23;5.45;;;;;;;22.17;70.82;94536.19;4967259;28;20621;-69
2023/08/02 01:51:04;;;;;;;7.55;5.55;;;;;;;22.02;70.93;94540.56;4929420;28;20909;-69
2023/08/02 01:53:30;;;;;;;8.48;5.95;;;;;;;22.04;71.45;94538.41;4946259;28;20228;-69
2023/08/02 01:55:55;;;;;;;9.05;5.70;;;;;;;21.95;71.63;94536.63;4967915;28;20240;-70
2023/08/02 01:58:21;;;;;;;8.68;5.45;;;;;;;21.85;72.28;94539.41;5020239;28;20235;-69
2023/08/02 02:00:46;;;;;;;8.73;5.65;;;;;;;21.55;73.41;94534.25;4970913;28;20240;-69
2023/08/02 02:03:12;;;;;;;8.35;5.72;;;;;;;21.69;73.36;94532.53;4920991;29;20229;-68
2023/08/02 02:05:38;;;;;;;8.35;5.63;;;;;;;21.81;72.71;94535.66;4930543;29;20248;-70
2023/08/02 02:08:03;;;;;;;9.93;6.10;;;;;;;21.74;72.98;94541.31;4977676;28;20232;-69
2023/08/02 02:10:29;;;;;;;12.20;6.15;;;;;;;21.74;72.93;94532.50;4910776;28;20299;-69
2023/08/02 02:12:55;;;;;;;7.55;6.32;;;;;;;21.65;73.49;94531.53;4924803;28;20244;-69
2023/08/02 02:15:20;;;;;;;8.50;6.00;;;;;;;21.65;73.22;94534.97;4932315;29;20651;-69
2023/08/02 02:17:46;;;;;;;7.93;6.00;;;;;;;21.66;73.63;94535.78;4924035;29;20264;-69
2023/08/02 02:20:12;;;;;;;9.82;6.47;;;;;;;21.69;73.60;94546.66;4930596;28;20237;-69
2023/08/02 02:22:38;;;;;;;10.70;6.55;;;;;;;21.66;73.84;94549.09;4937143;29;20228;-69
2023/08/02 02:25:04;;;;;;;9.57;6.07;;;;;;;21.52;74.46;94553.47;4934046;29;20268;-69
2023/08/02 02:27:30;;;;;;;9.15;6.03;;;;;;;21.43;74.71;94545.25;5007880;28;20235;-68
2023/08/02 02:29:55;;;;;;;10.85;6.13;;;;;;;21.38;75.40;94556.72;4922134;29;20245;-69
2023/08/02 02:32:21;;;;;;;9.43;6.38;;;;;;;21.44;75.33;94555.63;4918434;28;20230;-70
2023/08/02 02:34:46;;;;;;;8.55;6.20;;;;;;;21.59;74.35;94564.59;4914899;29;20238;-68
2023/08/02 02:37:12;;;;;;;11.00;6.70;;;;;;;21.49;74.54;94560.91;4919002;29;20244;-68
2023/08/02 02:39:38;;;;;;;9.57;6.45;;;;;;;21.55;74.39;94561.69;4919549;28;20244;-68
2023/08/02 02:42:04;;;;;;;8.82;6.63;;;;;;;21.54;74.75;94559.31;4940409;28;20237;-68
2023/08/02 02:44:42;;;;;;;11.10;6.50;;;;;;;21.60;74.07;94560.84;4934673;29;20236;-69
2023/08/02 02:47:09;;;;;;;8.38;6.50;;;;;;;21.64;73.99;94567.25;4921269;29;20240;-69
2023/08/02 02:49:34;;;;;;;10.45;6.35;;;;;;;21.74;73.21;94572.47;4922825;28;20782;-69
2023/08/02 02:52:00;;;;;;;11.10;6.53;;;;;;;21.62;73.54;94572.03;4932942;29;20237;-69
2023/08/02 02:54:25;;;;;;;8.77;6.32;;;;;;;21.65;73.06;94571.47;4926000;28;20240;-69
2023/08/02 02:56:51;;;;;;;8.25;5.85;;;;;;;21.59;73.73;94577.94;4920216;29;20236;-68
2023/08/02 02:59:17;;;;;;;10.38;6.47;;;;;;;21.83;73.20;94584.16;5001734;28;20290;-70
2023/08/02 03:01:42;;;;;;;9.68;6.55;;;;;;;21.68;73.42;94587.72;4963446;28;20394;-68
2023/08/02 03:04:08;;;;;;;8.10;6.00;;;;;;;21.48;74.01;94585.16;4938169;28;20237;-69
2023/08/02 03:06:34;;;;;;;9.43;6.30;;;;;;;21.60;73.56;94587.50;4932609;28;20241;-68
2023/08/02 03:08:59;;;;;;;9.07;6.22;;;;;;;21.57;73.37;94586.16;4931035;29;20268;-69
2023/08/02 03:11:24;;;;;;;9.38;5.97;;;;;;;21.58;72.87;94584.31;4945786;28;20611;-68
2023/08/02 03:13:50;;;;;;;10.50;5.78;;;;;;;21.82;71.79;94586.03;4936771;29;20244;-69
2023/08/02 03:16:16;;;;;;;11.00;5.97;;;;;;;21.75;71.59;94582.88;4935075;29;20281;-69
2023/08/02 03:18:41;;;;;;;11.52;5.80;;;;;;;21.66;71.95;94583.75;4947741;28;20225;-69
2023/08/02 03:21:06;;;;;;;10.63;5.75;;;;;;;21.48;72.66;94588.63;4934635;29;20234;-69
2023/08/02 03:23:34;;;;;;;8.60;5.55;;;;;;;21.52;72.98;94585.44;4924255;28;20228;-69
2023/08/02 03:25:59;;;;;;;11.88;5.60;;;;;;;21.44;72.43;94589.47;4919917;29;20247;-69
2023/08/02 03:28:25;;;;;;;12.70;5.75;;;;;;;21.32;73.13;94591.66;4919191;28;20229;-70
2023/08/02 03:30:53;;;;;;;9.68;5.63;;;;;;;21.45;72.79;94588.38;4925361;29;20256;-69
2023/08/02 03:33:18;;;;;;;12.10;5.38;;;;;;;21.66;71.82;94594.41;4932731;29;20233;-68
2023/08/02 03:35:44;;;;;;;6.85;5.40;;;;;;;21.61;72.24;94587.22;4931356;29;20745;-69
2023/08/02 03:38:09;;;;;;;9.18;5.80;;;;;;;21.42;73.26;94592.38;4957027;28;20289;-69
2023/08/02 03:40:35;;;;;;;9.75;5.70;;;;;;;21.32;73.82;94599.63;4966348;28;20236;-69
2023/08/02 03:43:00;;;;;;;8.85;5.68;;;;;;;21.44;73.52;94600.09;4977181;28;20249;-69
2023/08/02 03:45:26;;;;;;;9.50;6.10;;;;;;;21.45;73.71;94599.81;4956220;28;20252;-69
2023/08/02 03:47:52;;;;;;;12.55;5.68;;;;;;;21.53;73.26;94601.13;4922766;29;20945;-69
2023/08/02 03:50:18;;;;;;;9.68;5.43;;;;;;;21.61;72.81;94607.75;4933660;29;20236;-68
2023/08/02 03:52:43;;;;;;;9.95;5.90;;;;;;;21.41;73.56;94598.00;4932107;29;20316;-68
2023/08/02 03:55:09;;;;;;;15.25;5.53;;;;;;;21.27;74.01;94597.78;4934390;29;20244;-69
2023/08/02 03:57:35;;;;;;;9.45;5.80;;;;;;;21.31;73.46;94590.03;4931454;29;20233;-69
2023/08/02 04:00:00;;;;;;;9.23;5.63;;;;;;;21.41;73.04;94604.13;4918728;29;20234;-69
2023/08/02 04:02:26;;;;;;;9.13;5.47;;;;;;;21.52;72.97;94598.75;4918215;29;20248;-69
2023/08/02 04:04:52;;;;;;;9.23;5.65;;;;;;;21.48;72.65;94604.59;4934200;28;20249;-69
2023/08/02 04:07:18;;;;;;;10.88;5.45;;;;;;;21.59;72.71;94597.34;4974081;28;20232;-69
2023/08/02 04:09:44;;;;;;;7.00;5.28;;;;;;;21.62;72.51;94604.78;4914647;29;20237;-67
2023/08/02 04:12:09;;;;;;;10.70;5.55;;;;;;;21.67;72.96;94607.44;4928779;29;20228;-69
2023/08/02 04:14:35;;;;;;;10.98;5.82;;;;;;;21.66;72.24;94603.16;4911665;29;20241;-69
2023/08/02 04:17:00;;;;;;;9.70;6.03;;;;;;;21.66;72.40;94603.16;4938447;29;20228;-69
2023/08/02 04:19:26;;;;;;;11.48;6.40;;;;;;;21.62;72.78;94598.66;4931405;28;20719;-69
2023/08/02 04:21:52;;;;;;;10.07;5.88;;;;;;;21.71;72.43;94603.13;4965576;28;20243;-70
2023/08/02 04:24:17;;;;;;;9.15;6.10;;;;;;;21.79;72.35;94604.41;4908114;29;20244;-69
2023/08/02 04:26:43;;;;;;;11.85;6.07;;;;;;;21.71;72.49;94591.69;4916443;29;20675;-69
2023/08/02 04:29:08;;;;;;;9.60;5.88;;;;;;;21.74;72.91;94596.44;4932468;28;20248;-69
2023/08/02 04:31:34;;;;;;;14.27;6.22;;;;;;;21.87;72.54;94595.88;4930227;28;20234;-68
2023/08/02 04:34:00;;;;;;;10.15;6.20;;;;;;;21.88;72.17;94592.94;4920278;29;20244;-68
2023/08/02 04:36:26;;;;;;;11.55;6.28;;;;;;;21.99;72.70;94594.47;4924383;29;20302;-68
2023/08/02 04:38:55;;;;;;;8.95;6.03;;;;;;;22.12;71.42;94593.00;4935115;29;20258;-69
2023/08/02 04:41:20;;;;;;;10.13;5.97;;;;;;;22.09;72.17;94601.59;4930569;28;20251;-68
2023/08/02 04:43:47;;;;;;;13.18;6.65;;;;;;;22.12;72.28;94609.81;4935354;28;20328;-68
2023/08/02 04:46:13;;;;;;;10.40;6.85;;;;;;;22.21;71.58;94606.56;4912614;28;20237;-69
2023/08/02 04:48:39;;;;;;;11.25;7.00;;;;;;;22.25;70.77;94602.25;4919645;29;20245;-69
2023/08/02 04:51:08;;;;;;;11.85;6.63;;;;;;;22.27;70.60;94592.09;4968330;28;20632;-68
2023/08/02 04:53:34;;;;;;;14.32;6.90;;;;;;;22.29;69.93;94604.06;4967014;28;20233;-68
2023/08/02 04:56:00;;;;;;;10.82;6.72;;;;;;;22.31;70.34;94601.13;4940288;28;20789;-68
2023/08/02 04:58:26;;;;;;;13.25;7.05;;;;;;;22.38;70.90;94617.63;4931538;28;20228;-69
2023/08/02 05:00:51;;;;;;;11.23;6.93;;;;;;;22.30;70.79;94611.00;4945458;28;20236;-69
2023/08/02 05:03:17;;;;;;;15.52;7.35;;;;;;;22.32;70.66;94611.53;4941352;28;20343;-70
2023/08/02 05:05:43;;;;;;;15.77;7.88;;;;;;;22.39;69.95;94612.00;4947557;28;20724;-70
2023/08/02 05:08:09;;;;;;;14.57;8.07;;;;;;;22.30;70.05;94611.00;4931572;28;20232;-70
2023/08/02 05:10:37;;;;;;;13.77;8.00;;;;;;;22.32;69.69;94603.53;4933413;28;20759;-70
2023/08/02 05:13:05;;;;;;;13.80;8.00;;;;;;;22.33;69.79;94607.75;4947432;28;20301;-69
2023/08/02 05:15:36;;;;;;;12.00;8.02;;;;;;;22.30;70.32;94608.34;4949560;28;20259;-71
2023/08/02 05:18:01;;;;;;;10.93;8.02;;;;;;;22.35;70.22;94610.97;4941641;28;20232;-70
2023/08/02 05:20:33;;;;;;;12.43;8.40;;;;;;;22.40;70.14;94616.22;4933764;28;20674;-69
2023/08/02 05:22:59;;;;;;;14.98;8.52;;;;;;;22.51;69.70;94620.41;4932964;28;20244;-69
2023/08/02 05:25:33;;;;;;;12.82;8.68;;;;;;;22.52;70.33;94624.66;4932628;28;20320;-71
2023/08/02 05:27:58;;;;;;;13.88;9.57;;;;;;;22.62;69.28;94635.28;4930719;28;20741;-70
2023/08/02 05:30:26;;;;;;;15.90;9.38;;;;;;;22.58;68.94;94631.56;4928197;28;20224;-71
2023/08/02 05:32:52;;;;;;;18.35;9.13;;;;;;;22.56;69.33;94636.38;4935468;28;20240;-70
2023/08/02 05:35:18;;;;;;;15.55;9.35;;;;;;;22.53;69.69;94639.59;4929900;28;20285;-70
2023/08/02 05:37:44;;;;;;;15.88;9.13;;;;;;;22.64;70.13;94638.47;4928214;28;20232;-70
2023/08/02 05:40:10;;;;;;;16.55;9.32;;;;;;;22.67;70.08;94631.78;4950241;28;20302;-72
2023/08/02 05:42:35;;;;;;;21.88;9.30;;;;;;;22.74;69.87;94641.03;4963442;28;20319;-70
2023/08/02 05:45:01;;;;;;;20.10;9.50;;;;;;;22.68;69.54;94644.03;4948307;28;20245;-70
2023/08/02 05:47:27;;;;;;;15.95;8.70;;;;;;;22.76;68.83;94656.75;4933297;28;20236;-71
2023/08/02 05:49:54;;;;;;;17.73;8.68;;;;;;;22.73;69.07;94663.47;4938480;28;20247;-69
2023/08/02 05:52:20;;;;;;;17.45;9.05;;;;;;;22.72;69.41;94656.53;4934137;28;20232;-70
2023/08/02 05:54:45;;;;;;;22.27;9.35;;;;;;;22.83;69.00;94669.78;4988375;28;20318;-70
2023/08/02 05:57:11;;;;;;;20.77;9.15;;;;;;;22.86;68.43;94664.69;4993610;28;20319;-70
2023/08/02 05:59:37;;;;;;;15.38;9.18;;;;;;;22.82;69.24;94652.97;4915370;28;20240;-70
2023/08/02 06:02:04;;;;;;;17.02;9.55;;;;;;;22.68;69.00;94655.53;4932385;29;20247;-69
2023/08/02 06:04:30;;;;;;;16.38;9.63;;;;;;;22.85;68.40;94664.97;4917131;28;20774;-70
2023/08/02 06:06:56;;;;;;;17.88;9.60;;;;;;;22.86;68.33;94671.88;4932406;29;20251;-69
2023/08/02 06:09:21;;;;;;;18.98;9.30;;;;;;;22.90;68.35;94663.06;4928929;28;20241;-70
2023/08/02 06:11:50;;;;;;;17.35;9.73;;;;;;;23.06;67.74;94656.47;4933007;29;20237;-70
2023/08/02 06:14:16;;;;;;;17.70;10.00;;;;;;;23.09;68.30;94658.59;4933236;29;20332;-70
2023/08/02 06:16:42;;;;;;;16.63;9.80;;;;;;;23.20;68.29;94668.06;4935177;29;20244;-68
2023/08/02 06:19:07;;;;;;;17.80;10.30;;;;;;;23.31;66.02;94672.22;4922164;29;20237;-69
2023/08/02 06:21:34;;;;;;;21.02;10.23;;;;;;;23.38;66.14;94677.25;4921863;29;20236;-68
2023/08/02 06:24:00;;;;;;;17.95;10.30;;;;;;;23.45;65.48;94667.78;4961335;28;20298;-69
2023/08/02 06:26:26;;;;;;;17.60;9.85;;;;;;;23.52;65.68;94672.81;4952067;28;20342;-69
2023/08/02 06:28:52;;;;;;;16.95;10.20;;;;;;;23.56;66.03;94667.69;4929657;28;20267;-69
2023/08/02 06:31:18;;;;;;;14.52;10.35;;;;;;;23.51;65.53;94668.53;4963368;28;20291;-70
2023/08/02 06:33:43;;;;;;;23.88;10.55;;;;;;;23.65;64.44;94668.63;4952256;28;20263;-68
2023/08/02 06:36:09;;;;;;;15.20;10.77;;;;;;;23.66;64.42;94660.34;4935668;28;20229;-69
2023/08/02 06:38:34;;;;;;;18.17;10.77;;;;;;;23.72;64.30;94659.19;4934334;28;20228;-69
2023/08/02 06:41:00;;;;;;;16.65;10.05;;;;;;;23.86;65.01;94659.28;4950913;28;20229;-69
2023/08/02 06:43:26;;;;;;;17.70;10.95;;;;;;;24.06;63.74;94657.13;4937874;28;20229;-68
2023/08/02 06:45:51;;;;;;;17.33;10.85;;;;;;;24.02;63.45;94652.63;4945090;28;20263;-69
2023/08/02 06:48:19;;;;;;;19.38;10.82;;;;;;;24.10;63.60;94654.66;4932870;28;20749;-69
2023/08/02 06:50:44;;;;;;;16.33;10.82;;;;;;;24.15;64.53;94649.25;4956156;28;20237;-69
2023/08/02 06:53:10;;;;;;;16.00;10.93;;;;;;;24.20;62.85;94648.38;4996618;28;20308;-69
2023/08/02 06:55:35;;;;;;;15.82;10.40;;;;;;;24.27;62.83;94644.25;4940217;28;20282;-70
2023/08/02 06:58:01;;;;;;;16.13;10.98;;;;;;;24.28;63.46;94655.75;4989508;28;21229;-69
2023/08/02 07:00:29;;;;;;;17.10;11.20;;;;;;;24.29;62.81;94649.31;4937081;28;20710;-69
2023/08/02 07:02:57;;;;;;;19.30;11.32;;;;;;;24.30;62.94;94653.56;4953784;28;20237;-69
2023/08/02 07:05:25;;;;;;;14.48;10.40;;;;;;;24.37;63.95;94654.00;4944750;28;20332;-70
2023/08/02 07:07:51;;;;;;;16.75;11.25;;;;;;;24.45;63.44;94651.47;4926570;28;20271;-69
2023/08/02 07:10:17;;;;;;;19.48;10.90;;;;;;;24.53;63.08;94650.78;4919550;28;20649;-69
2023/08/02 07:12:42;;;;;;;16.13;11.30;;;;;;;24.72;64.15;94653.41;4939183;28;20614;-69
2023/08/02 07:15:09;;;;;;;14.77;11.57;;;;;;;24.81;63.37;94654.38;5014639;28;20698;-70
2023/08/02 07:17:35;;;;;;;15.02;11.32;;;;;;;24.81;61.46;94658.94;4954048;28;20320;-70
2023/08/02 07:20:01;;;;;;;17.08;10.63;;;;;;;24.80;61.17;94663.47;4941849;28;20343;-68
2023/08/02 07:22:27;;;;;;;16.13;10.88;;;;;;;24.84;61.54;94653.00;4948963;28;20320;-70
2023/08/02 07:24:52;;;;;;;18.75;10.90;;;;;;;24.93;61.89;94657.38;4928268;28;20232;-69
2023/08/02 07:27:18;;;;;;;16.73;11.13;;;;;;;24.97;61.84;94652.22;4954866;28;20251;-69
2023/08/02 07:29:47;;;;;;;17.17;11.10;;;;;;;24.99;62.08;94650.03;4933586;28;20705;-69
2023/08/02 07:32:13;;;;;;;16.33;11.15;;;;;;;25.06;61.17;94653.09;4936990;28;20229;-70
2023/08/02 07:34:38;;;;;;;16.63;11.23;;;;;;;25.12;60.74;94658.09;4934422;28;20264;-69
2023/08/02 07:37:05;;;;;;;16.30;11.10;;;;;;;25.26;61.52;94650.06;4933592;28;20694;-70
2023/08/02 07:39:31;;;;;;;16.25;11.80;;;;;;;25.37;60.58;94662.16;4924708;28;20331;-69
2023/08/02 07:41:57;;;;;;;16.48;11.50;;;;;;;25.43;60.58;94661.75;4923995;28;20248;-70
2023/08/02 07:44:22;;;;;;;16.05;11.07;;;;;;;25.50;60.03;94657.94;4918791;28;20229;-69
2023/08/02 07:46:50;;;;;;;17.83;11.13;;;;;;;25.54;59.14;94657.03;4924988;28;20229;-68
2023/08/02 07:49:16;;;;;;;16.45;11.45;;;;;;;25.61;61.01;94657.41;4927665;28;20240;-70
2023/08/02 07:51:42;;;;;;;15.85;11.00;;;;;;;25.66;58.51;94657.31;4951502;28;20263;-71
2023/08/02 07:54:07;;;;;;;20.00;11.60;;;;;;;25.63;59.48;94654.41;4951927;28;20236;-70
2023/08/02 07:56:34;;;;;;;14.32;10.20;;;;;;;25.77;58.97;94666.72;4951572;28;20300;-69
2023/08/02 07:59:00;;;;;;;15.82;10.57;;;;;;;25.87;58.73;94653.09;4922599;28;20228;-70
2023/08/02 08:01:26;;;;;;;19.50;11.00;;;;;;;25.95;58.77;94656.97;4947481;28;20248;-69
2023/08/02 08:03:51;;;;;;;16.88;10.90;;;;;;;26.06;58.44;94659.13;4954689;28;20236;-69
2023/08/02 08:06:20;;;;;;;15.05;10.90;;;;;;;26.21;58.97;94649.97;5017349;28;20236;-68
2023/08/02 08:08:46;;;;;;;18.50;10.82;;;;;;;26.29;58.02;94659.19;5021437;28;21012;-69
2023/08/02 08:11:12;;;;;;;20.33;11.10;;;;;;;26.45;57.12;94652.34;4921440;29;20324;-69
2023/08/02 08:13:38;;;;;;;14.43;10.05;;;;;;;26.44;57.13;94654.25;5020912;28;21196;-70
2023/08/02 08:16:04;;;;;;;15.23;8.43;;;;;;;26.67;53.08;94657.72;4957607;28;20332;-70
2023/08/02 08:18:31;;;;;;;13.20;8.13;;;;;;;26.73;53.85;94659.97;4932093;28;20238;-70
2023/08/02 08:20:57;;;;;;;15.27;9.07;;;;;;;26.84;54.03;94657.06;4920791;29;20319;-69
2023/08/02 08:23:25;;;;;;;12.23;8.18;;;;;;;26.93;53.15;94657.91;4930656;29;20614;-70
2023/08/02 08:25:51;;;;;;;8.70;6.53;;;;;;;27.10;50.54;94658.81;4941385;28;20319;-70
2023/08/02 08:28:17;;;;;;;10.30;6.97;;;;;;;27.24;50.13;94659.50;4935451;28;20235;-70
2023/08/02 08:30:43;;;;;;;12.02;7.25;;;;;;;27.34;50.73;94653.84;4941711;28;20225;-69
2023/08/02 08:33:10;;;;;;;9.95;7.97;;;;;;;27.31;51.25;94650.97;4952136;28;20232;-70
2023/08/02 08:35:35;;;;;;;12.30;8.18;;;;;;;27.36;51.71;94656.22;4923812;28;20240;-69
2023/08/02 08:38:02;;;;;;;12.65;8.20;;;;;;;27.46;50.73;94647.91;4968074;28;20685;-69
2023/08/02 08:40:27;;;;;;;10.95;8.32;;;;;;;27.46;52.47;94649.81;4934291;28;20244;-69
2023/08/02 08:42:54;;;;;;;11.95;8.75;;;;;;;27.47;52.67;94654.06;4923215;28;20220;-69
2023/08/02 08:45:21;;;;;;;14.10;8.63;;;;;;;27.53;52.06;94659.00;4941647;28;20236;-69
2023/08/02 08:47:47;;;;;;;13.00;8.80;;;;;;;27.61;51.69;94649.38;4988015;28;20252;-70
2023/08/02 08:50:12;;;;;;;12.05;9.30;;;;;;;27.71;51.40;94647.19;4942598;28;20328;-68
2023/08/02 08:52:39;;;;;;;12.55;8.70;;;;;;;27.73;53.34;94652.25;4943374;28;20762;-70
2023/08/02 08:55:07;;;;;;;11.57;8.90;;;;;;;27.91;51.46;94656.56;4957551;28;20279;-69
2023/08/02 08:57:33;;;;;;;17.10;8.75;;;;;;;27.92;51.27;94647.38;4923730;28;20244;-68
2023/08/02 08:59:59;;;;;;;11.80;8.77;;;;;;;28.00;51.32;94650.13;4918822;29;21081;-69
2023/08/02 09:02:24;;;;;;;13.68;9.43;;;;;;;28.08;51.65;94656.63;5014533;28;20229;-70
2023/08/02 09:04:50;;;;;;;14.77;9.52;;;;;;;28.09;51.83;94646.66;4915839;29;20303;-69
2023/08/02 09:07:15;;;;;;;13.95;9.32;;;;;;;28.21;51.36;94639.50;4979265;28;20237;-69
2023/08/02 09:09:41;;;;;;;14.57;9.68;;;;;;;28.31;51.45;94647.28;4976876;28;20456;-69
2023/08/02 09:12:07;;;;;;;14.30;9.32;;;;;;;28.52;49.85;94642.81;4924689;28;20245;-69
2023/08/02 09:14:32;;;;;;;12.88;9.32;;;;;;;28.72;48.53;94636.03;4924753;29;20264;-70
2023/08/02 09:17:02;;;;;;;15.68;9.40;;;;;;;28.63;50.26;94638.75;4980125;28;20862;-70
2023/08/02 09:19:32;;;;;;;14.95;9.43;;;;;;;28.51;49.91;94629.69;4972439;28;20262;-69
2023/08/02 09:22:08;;;;;;;12.65;9.30;;;;;;;28.47;49.74;94628.72;4997305;28;20229;-69
2023/08/02 09:24:37;;;;;;;15.02;9.05;;;;;;;28.78;48.69;94631.28;4951205;28;20241;-69
2023/08/02 09:27:10;;;;;;;12.18;8.38;;;;;;;28.69;47.25;94625.88;4929281;29;20353;-70
2023/08/02 09:29:52;;;;;;;11.27;8.18;;;;;;;28.73;46.66;94634.94;5015601;28;20233;-70
2023/08/02 09:32:20;;;;;;;11.88;8.25;;;;;;;28.67;46.85;94636.19;4937079;28;20223;-69
2023/08/02 09:34:58;;;;;;;11.13;7.65;;;;;;;28.72;46.60;94633.31;4926776;28;20236;-70
2023/08/02 09:37:34;;;;;;;10.95;7.70;;;;;;;28.97;45.26;94635.16;4933893;28;20238;-70
2023/08/02 09:40:00;;;;;;;10.52;7.45;;;;;;;29.12;44.30;94634.66;4947626;28;21341;-69
2023/08/02 09:42:26;;;;;;;9.60;7.32;;;;;;;29.18;44.45;94636.09;4927642;28;20233;-69
2023/08/02 09:44:55;;;;;;;11.38;6.88;;;;;;;29.14;44.31;94635.09;4936124;28;20232;-68
2023/08/02 09:47:21;;;;;;;12.35;7.40;;;;;;;29.17;44.89;94636.38;4945764;28;20232;-70
2023/08/02 09:50:13;;;;;;;9.68;7.70;;;;;;;29.28;44.80;94633.03;4924647;28;20247;-69
2023/08/02 09:52:39;;;;;;;10.68;7.10;;;;;;;29.40;43.38;94628.88;4959819;28;20274;-71
2023/08/02 09:55:06;;;;;;;8.73;6.85;;;;;;;29.48;44.21;94628.00;4925377;28;20229;-70
2023/08/02 09:57:32;;;;;;;16.33;6.82;;;;;;;29.27;43.28;94625.25;4926487;28;20327;-68
2023/08/02 10:00:07;;;;;;;9.80;6.50;;;;;;;29.13;43.46;94630.84;4956229;28;20908;-69
2023/08/02 10:02:35;;;;;;;11.45;6.45;;;;;;;29.40;42.95;94629.63;4937905;28;20621;-69
2023/08/02 10:05:01;;;;;;;8.00;6.28;;;;;;;29.51;41.43;94630.06;4921040;28;20843;-70
2023/08/02 10:07:35;;;;;;;10.93;6.35;;;;;;;29.44;41.29;94627.88;4938257;28;20850;-69
2023/08/02 10:10:09;;;;;;;7.93;5.80;;;;;;;29.31;41.53;94635.06;4932700;28;20243;-69
2023/08/02 10:12:38;;;;;;;7.45;5.90;;;;;;;29.22;41.57;94630.84;4940570;28;20246;-69
2023/08/02 10:15:04;;;;;;;8.10;6.10;;;;;;;29.15;42.11;94642.09;4923239;28;20235;-69
2023/08/02 10:17:30;;;;;;;9.32;5.88;;;;;;;29.03;42.09;94628.50;4952441;28;20228;-70
2023/08/02 10:19:57;;;;;;;8.70;6.15;;;;;;;29.17;42.32;94629.06;4922294;28;20237;-70
2023/08/02 10:22:24;;;;;;;9.23;6.28;;;;;;;29.32;41.33;94635.88;4934213;28;20307;-71
2023/08/02 10:24:50;;;;;;;8.73;5.97;;;;;;;29.50;41.87;94621.19;4928201;28;20233;-70
2023/08/02 10:27:16;;;;;;;10.57;6.18;;;;;;;29.60;41.59;94620.81;4925130;28;20232;-70
2023/08/02 10:29:42;;;;;;;8.05;5.88;;;;;;;29.62;40.74;94609.69;4932459;28;20260;-69
2023/08/02 10:32:16;;;;;;;7.60;5.75;;;;;;;29.71;39.53;94607.75;4952026;28;20232;-71
2023/08/02 10:34:42;;;;;;;11.57;5.93;;;;;;;29.87;39.40;94627.69;4959929;28;20832;-69
2023/08/02 10:37:07;;;;;;;8.57;6.10;;;;;;;30.08;39.61;94622.28;4957402;28;20243;-71
2023/08/02 10:39:45;;;;;;;8.82;5.85;;;;;;;30.14;38.98;94610.19;4917121;28;20741;-69
2023/08/02 10:42:18;;;;;;;8.95;5.65;;;;;;;30.27;38.71;94612.59;4952352;28;20225;-70
2023/08/02 10:45:10;;;;;;;6.65;5.72;;;;;;;30.42;39.00;94622.84;4942679;28;20241;-69
2023/08/02 10:47:35;;;;;;;10.70;5.65;;;;;;;30.46;38.72;94618.34;4949603;28;20816;-69
2023/08/02 10:50:02;;;;;;;9.70;5.35;;;;;;;30.33;37.70;94629.41;4936845;28;20236;-71
2023/08/02 10:52:29;;;;;;;9.57;5.30;;;;;;;30.07;38.74;94613.38;4923064;28;20228;-70
2023/08/02 10:55:13;;;;;;;8.93;5.28;;;;;;;30.28;39.02;94622.31;4958175;28;20302;-69
2023/08/02 10:57:41;;;;;;;7.50;5.53;;;;;;;30.39;38.11;94623.50;4949473;28;20236;-70
2023/08/02 11:00:17;;;;;;;10.82;5.88;;;;;;;30.57;37.95;94618.75;4989743;28;20245;-70
2023/08/02 11:02:47;;;;;;;9.90;5.35;;;;;;;30.73;37.96;94617.00;4908178;29;20738;-70
2023/08/02 11:05:19;;;;;;;6.95;5.68;;;;;;;30.84;38.15;94620.03;4944815;28;20297;-69
2023/08/02 11:07:58;;;;;;;8.65;5.65;;;;;;;30.77;38.46;94615.19;4933560;28;20235;-69
2023/08/02 11:10:23;;;;;;;9.90;5.50;;;;;;;30.82;37.34;94603.38;4932219;29;20240;-68
2023/08/02 11:12:53;;;;;;;8.07;5.68;;;;;;;30.79;38.21;94604.81;4917348;28;20237;-69
2023/08/02 11:15:19;;;;;;;6.50;5.30;;;;;;;30.85;36.40;94608.13;4930443;28;20252;-71
2023/08/02 11:17:45;;;;;;;8.40;5.80;;;;;;;30.82;37.59;94608.78;4965660;28;20225;-71
2023/08/02 11:20:11;;;;;;;9.82;5.32;;;;;;;30.98;37.00;94607.03;4924500;29;20244;-70
2023/08/02 11:22:36;;;;;;;8.43;5.68;;;;;;;30.96;37.37;94614.69;4969396;28;20241;-69
2023/08/02 11:25:03;;;;;;;10.35;5.60;;;;;;;30.92;37.86;94608.38;4920187;29;20251;-68